Terminal Aerodrome Forecast
Issued by NWS Blacksburg, VA

Current Version | Previous Version | Graphics & Text | Print | Product List | Glossary On
Versions: 1 2 3 4 5 6 7 8 9 10 11 12 13 14 15 16 17 18 19 20
000
FTUS41 KRNK 241722
TAFBLF
TAF
KBLF 241722Z 2418/2518 VRB06KT P6SM FEW250
     FM250500 19006KT P6SM BKN040
     FM250900 20007KT P6SM OVC025
     FM251200 24008KT 3SM SHRA OVC008
     FM251600 27011KT 5SM -SHRA BKN015=

USA.gov is the U.S. government's official web portal to all federal, state and local government web resources and services.